Time;durP1;ratioP1;P1;durP2;ratioP2;P2;SDS_P1;SDS_P2;PMS_P1;PMS_P2;Temp;Humidity;BMP_temperature;BMP_pressure;BME280_temperature;BME280_humidity;BME280_pressure;Samples;Min_cycle;Max_cycle;Signal;HPM_P1;HPM_P2
2022/07/06 00:01:42;;;;;;;;;3.00;3.00;;;;;20.58;43.51;102064.56;5076001;27;45457;-83
2022/07/06 00:04:07;;;;;;;;;2.00;2.00;;;;;20.58;43.65;102077.91;5076820;28;45417;-83
2022/07/06 00:06:33;;;;;;;;;4.00;4.00;;;;;20.61;43.61;102072.63;5074462;28;46076;-82
2022/07/06 00:08:59;;;;;;;;;2.75;2.75;;;;;20.45;43.81;102056.34;5076055;28;45432;-84
2022/07/06 00:11:24;;;;;;;;;3.00;3.00;;;;;20.50;43.91;102076.94;5057905;28;45619;-83
2022/07/06 00:13:51;;;;;;;;;3.25;3.25;;;;;20.32;44.37;102058.81;5075952;28;45518;-84
2022/07/06 00:16:17;;;;;;;;;3.25;2.50;;;;;20.23;44.43;102039.97;5057276;28;47096;-84
2022/07/06 00:18:42;;;;;;;;;4.25;4.00;;;;;20.35;44.28;102071.31;5076184;27;45569;-85
2022/07/06 00:21:08;;;;;;;;;3.25;3.25;;;;;20.32;44.53;102071.25;5076042;28;45395;-84
2022/07/06 00:23:33;;;;;;;;;2.00;2.00;;;;;20.39;44.10;102078.47;5076053;28;45413;-84
2022/07/06 00:25:59;;;;;;;;;2.75;2.00;;;;;20.34;44.49;102078.44;5056997;28;47588;-85
2022/07/06 00:28:24;;;;;;;;;3.25;3.00;;;;;20.29;44.85;102081.88;5074356;28;45363;-85
2022/07/06 00:30:50;;;;;;;;;3.50;3.50;;;;;20.27;44.59;102078.31;5075356;28;45594;-83
2022/07/06 00:33:15;;;;;;;;;3.00;3.00;;;;;20.23;45.15;102082.69;5075624;28;45333;-85
2022/07/06 00:35:40;;;;;;;;;3.00;3.00;;;;;20.20;44.83;102082.66;5057436;28;47188;-83
2022/07/06 00:38:06;;;;;;;;;3.00;3.00;;;;;20.29;45.25;102092.56;5075387;28;45533;-83
2022/07/06 00:40:31;;;;;;;;;2.75;2.75;;;;;20.08;45.42;102063.75;5075428;28;45458;-83
2022/07/06 00:42:57;;;;;;;;;2.75;2.75;;;;;20.17;45.18;102076.34;5075602;28;45804;-83
2022/07/06 00:45:23;;;;;;;;;3.00;2.50;;;;;20.09;45.68;102069.09;5074935;27;45671;-83
2022/07/06 00:47:48;;;;;;;;;3.00;3.00;;;;;20.06;45.51;102066.41;5073959;28;45297;-83
2022/07/06 00:50:17;;;;;;;;;2.00;2.00;;;;;20.21;45.15;102091.56;5075312;28;45369;-83
2022/07/06 00:52:45;;;;;;;;;2.75;2.75;;;;;20.04;45.68;102067.25;5075612;28;45529;-83
2022/07/06 00:55:12;;;;;;;;;2.00;2.00;;;;;20.14;45.86;102085.19;5075678;28;45822;-84
2022/07/06 00:57:38;;;;;;;;;3.00;3.00;;;;;19.95;46.15;102060.00;5075284;28;46223;-83
2022/07/06 01:00:05;;;;;;;;;4.00;3.50;;;;;20.08;45.90;102083.34;5075225;27;45362;-83
2022/07/06 01:02:32;;;;;;;;;3.00;2.25;;;;;19.96;45.96;102061.78;5075166;28;45603;-84
2022/07/06 01:04:58;;;;;;;;;4.25;3.50;;;;;20.04;46.18;102086.81;5056810;28;46325;-85
2022/07/06 01:07:24;;;;;;;;;3.50;3.00;;;;;19.86;46.50;102062.50;5075133;28;45338;-84
2022/07/06 01:09:49;;;;;;;;;4.25;3.50;;;;;19.82;46.46;102052.66;5075478;28;45533;-83
2022/07/06 01:12:15;;;;;;;;;3.00;2.00;;;;;19.72;46.36;102037.34;5075144;28;45534;-85
2022/07/06 01:14:41;;;;;;;;;3.00;3.00;;;;;19.80;46.26;102057.03;5075118;27;45300;-82
2022/07/06 01:17:08;;;;;;;;;2.75;2.75;;;;;19.94;46.50;102074.19;5075013;28;45334;-87
2022/07/06 01:19:33;;;;;;;;;3.00;3.00;;;;;19.60;46.29;102022.00;5073855;28;45565;-87
2022/07/06 01:21:59;;;;;;;;;4.00;3.00;;;;;19.97;47.02;102090.25;5074878;28;45767;-83
2022/07/06 01:24:25;;;;;;;;;4.50;3.75;;;;;19.79;46.77;102060.56;5056522;28;48129;-86
2022/07/06 01:26:50;;;;;;;;;4.00;3.00;;;;;19.78;46.97;102061.47;5074996;28;45394;-86
2022/07/06 01:29:15;;;;;;;;;3.25;3.00;;;;;19.93;46.88;102088.41;5075094;28;45497;-83
2022/07/06 01:31:49;;;;;;;;;4.50;4.50;;;;;19.91;46.94;102084.81;5073358;28;45493;-82
2022/07/06 01:34:16;;;;;;;;;4.00;4.00;;;;;19.61;46.81;102038.94;5073359;28;47321;-88
2022/07/06 01:36:41;;;;;;;;;4.25;2.50;;;;;19.79;47.41;102079.25;5074002;27;45877;-83
2022/07/06 01:39:08;;;;;;;;;5.00;4.50;;;;;19.75;47.31;102077.41;5056384;28;45415;-85
2022/07/06 01:41:34;;;;;;;;;3.25;3.00;;;;;19.69;46.98;102069.28;5074916;27;45772;-85
2022/07/06 01:43:59;;;;;;;;;4.25;4.00;;;;;19.66;47.48;102059.47;5074554;27;45941;-83
2022/07/06 01:46:24;;;;;;;;;3.00;3.00;;;;;19.65;46.95;102065.66;5074088;27;45323;-86
2022/07/06 01:48:50;;;;;;;;;3.25;3.25;;;;;19.77;46.97;102091.69;5074524;28;45295;-84
2022/07/06 01:51:15;;;;;;;;;3.00;2.50;;;;;19.77;47.35;102086.34;5056215;28;45481;-84
2022/07/06 01:53:41;;;;;;;;;4.00;3.50;;;;;19.69;47.49;102078.19;5073284;28;47098;-84
2022/07/06 01:56:07;;;;;;;;;4.25;3.50;;;;;19.69;47.66;102086.19;5073160;28;45527;-85
2022/07/06 01:58:32;;;;;;;;;4.00;4.00;;;;;19.64;47.85;102077.19;5073881;28;45285;-83
2022/07/06 02:00:57;;;;;;;;;5.00;3.50;;;;;19.56;47.67;102071.72;5073931;27;45394;-84
2022/07/06 02:03:23;;;;;;;;;3.25;3.00;;;;;19.64;48.03;102092.31;5074164;27;45338;-85
2022/07/06 02:05:48;;;;;;;;;4.00;3.75;;;;;19.52;48.13;102071.63;5074392;28;45485;-83
2022/07/06 02:08:14;;;;;;;;;3.25;3.00;;;;;19.59;48.50;102090.44;5056176;28;45924;-83
2022/07/06 02:10:40;;;;;;;;;3.00;3.00;;;;;19.47;48.09;102060.88;5074377;28;45569;-86
2022/07/06 02:13:05;;;;;;;;;3.50;3.50;;;;;19.46;48.08;102069.75;5074105;28;45521;-87
2022/07/06 02:15:30;;;;;;;;;2.50;2.50;;;;;19.55;47.82;102077.88;5074068;27;45585;-85
2022/07/06 02:17:56;;;;;;;;;4.25;4.00;;;;;19.56;48.55;102095.72;5073905;28;45474;-83
2022/07/06 02:20:21;;;;;;;;;3.00;3.00;;;;;19.50;48.29;102086.66;5056051;28;45348;-85
2022/07/06 02:22:46;;;;;;;;;2.50;2.50;;;;;19.44;48.27;102076.78;5073773;28;50481;-83
2022/07/06 02:25:11;;;;;;;;;3.00;3.00;;;;;19.41;48.86;102071.41;5055920;28;45375;-83
2022/07/06 02:27:37;;;;;;;;;3.00;3.00;;;;;19.31;48.75;102058.78;5074276;28;45464;-82
2022/07/06 02:30:03;;;;;;;;;3.75;3.75;;;;;19.30;48.38;102054.28;5073706;28;45240;-83
2022/07/06 02:32:28;;;;;;;;;4.00;3.75;;;;;19.33;48.54;102065.91;5055577;28;47172;-85
2022/07/06 02:34:54;;;;;;;;;3.00;3.00;;;;;19.15;48.96;102043.31;5073838;27;45454;-82
2022/07/06 02:37:19;;;;;;;;;4.00;4.00;;;;;19.20;49.44;102062.97;5055561;28;45281;-83
2022/07/06 02:39:44;;;;;;;;;4.00;4.00;;;;;18.93;49.36;102023.34;5073003;28;45449;-83
2022/07/06 02:42:10;;;;;;;;;4.00;4.00;;;;;19.10;49.84;102059.22;5073538;27;46555;-83
2022/07/06 02:44:35;;;;;;;;;5.00;4.00;;;;;19.12;49.56;102073.50;5055658;28;45302;-85
2022/07/06 02:47:00;;;;;;;;;4.25;4.00;;;;;18.94;50.20;102054.44;5073597;28;45928;-86
2022/07/06 02:49:26;;;;;;;;;4.25;4.00;;;;;19.06;50.25;102084.00;5077334;28;45300;-85
2022/07/06 02:51:51;;;;;;;;;4.50;3.75;;;;;18.87;50.40;102056.09;5077850;28;45702;-82
2022/07/06 02:54:17;;;;;;;;;4.00;3.75;;;;;18.73;50.27;102049.56;5077235;28;45308;-84
2022/07/06 02:56:42;;;;;;;;;3.75;3.25;;;;;18.88;50.19;102081.88;5077586;27;45427;-83
2022/07/06 02:59:07;;;;;;;;;3.25;3.25;;;;;18.64;50.81;102051.97;5077846;28;45389;-86
2022/07/06 03:01:33;;;;;;;;;3.25;3.25;;;;;18.84;51.10;102100.41;5077037;28;45403;-86
2022/07/06 03:03:58;;;;;;;;;3.00;3.00;;;;;18.55;50.59;102063.31;5077293;28;45430;-83
2022/07/06 03:06:23;;;;;;;;;5.00;4.50;;;;;18.74;50.94;102101.97;5077549;28;45376;-84
2022/07/06 03:08:49;;;;;;;;;4.25;4.25;;;;;18.56;51.38;102089.97;5077290;27;45445;-85
2022/07/06 03:11:14;;;;;;;;;4.25;3.75;;;;;18.47;51.62;102081.78;5075532;28;48241;-83
2022/07/06 03:13:40;;;;;;;;;5.00;4.25;;;;;18.44;51.43;102087.03;5077190;28;45516;-86
2022/07/06 03:16:05;;;;;;;;;3.00;3.00;;;;;18.25;51.78;102064.41;5076737;27;45458;-83
2022/07/06 03:18:30;;;;;;;;;4.00;4.00;;;;;18.33;51.23;102080.56;5077290;28;45327;-83
2022/07/06 03:20:56;;;;;;;;;2.75;2.75;;;;;18.32;51.83;102086.72;5077037;28;46444;-85
2022/07/06 03:23:21;;;;;;;;;4.75;4.50;;;;;18.33;52.06;102093.88;5075489;28;45383;-83
2022/07/06 03:25:47;;;;;;;;;5.25;5.25;;;;;18.27;51.98;102091.97;5077442;28;45473;-83
2022/07/06 03:28:12;;;;;;;;;4.25;4.00;;;;;18.18;52.52;102080.19;5076870;28;45574;-83
2022/07/06 03:30:37;;;;;;;;;4.50;4.50;;;;;18.15;52.31;102088.09;5057993;28;49302;-85
2022/07/06 03:33:03;;;;;;;;;3.75;3.75;;;;;18.13;52.47;102082.75;5058546;28;45402;-83
2022/07/06 03:35:28;;;;;;;;;5.25;4.25;;;;;18.01;52.64;102070.00;5076995;28;45371;-85
2022/07/06 03:37:54;;;;;;;;;4.00;4.00;;;;;18.20;52.14;102103.31;5076825;28;45298;-84
2022/07/06 03:40:19;;;;;;;;;4.50;4.00;;;;;18.13;52.90;102104.03;5076750;27;45489;-86
2022/07/06 03:42:44;;;;;;;;;5.00;5.00;;;;;18.12;52.26;102114.59;5075023;28;45380;-83
2022/07/06 03:45:10;;;;;;;;;5.00;5.00;;;;;18.13;52.84;102114.66;5057995;28;45427;-84
2022/07/06 03:47:36;;;;;;;;;4.25;4.25;;;;;18.05;52.67;102102.91;5058338;28;45561;-85
2022/07/06 03:50:01;;;;;;;;;4.25;4.25;;;;;18.09;53.19;102119.88;5074832;28;47398;-83
2022/07/06 03:52:26;;;;;;;;;4.25;4.00;;;;;18.03;52.99;102118.84;5076534;28;45508;-82
2022/07/06 03:54:52;;;;;;;;;4.00;4.00;;;;;17.95;53.13;102109.75;5075196;28;45918;-82
2022/07/06 03:57:17;;;;;;;;;4.50;4.25;;;;;17.93;53.16;102099.91;5076393;28;45581;-86
2022/07/06 03:59:42;;;;;;;;;4.00;3.25;;;;;17.93;53.16;102106.19;5057305;28;46887;-86
2022/07/06 04:02:08;;;;;;;;;3.00;3.00;;;;;18.02;53.66;102129.44;5075856;28;45331;-83
2022/07/06 04:04:34;;;;;;;;;5.00;5.00;;;;;17.85;53.75;102093.53;5076373;28;45393;-83
2022/07/06 04:06:59;;;;;;;;;4.25;4.25;;;;;17.89;53.47;102109.59;5057866;28;46138;-85
2022/07/06 04:09:25;;;;;;;;;4.25;4.25;;;;;17.77;54.06;102099.53;5076539;28;46414;-85
2022/07/06 04:11:50;;;;;;;;;4.75;4.50;;;;;17.70;53.37;102099.28;5076238;28;45351;-85
2022/07/06 04:14:15;;;;;;;;;5.00;5.00;;;;;17.78;54.44;102103.06;5057922;28;45276;-83
2022/07/06 04:16:41;;;;;;;;;4.50;4.50;;;;;17.75;53.87;102093.28;5075795;28;45419;-83
2022/07/06 04:19:06;;;;;;;;;4.25;4.25;;;;;17.77;54.17;102107.50;5075998;28;47615;-84
2022/07/06 04:21:31;;;;;;;;;3.75;3.75;;;;;17.76;54.27;102108.38;5075982;28;45457;-84
2022/07/06 04:23:57;;;;;;;;;4.00;4.00;;;;;17.79;53.92;102115.53;5075987;27;45461;-86
2022/07/06 04:26:22;;;;;;;;;5.00;4.00;;;;;17.76;54.15;102104.81;5075888;27;45544;-87
2022/07/06 04:28:47;;;;;;;;;4.75;4.75;;;;;17.75;53.67;102103.00;5074533;28;47122;-87
2022/07/06 04:31:15;;;;;;;;;5.75;5.00;;;;;17.75;53.84;102097.69;5075266;28;45385;-84
2022/07/06 04:33:42;;;;;;;;;4.75;4.00;;;;;17.79;54.25;102115.53;5075970;27;45420;-85
2022/07/06 04:36:07;;;;;;;;;5.00;5.00;;;;;17.81;54.80;102118.22;5057847;28;45518;-83
2022/07/06 04:38:32;;;;;;;;;4.00;4.00;;;;;17.81;54.11;102123.56;5074274;28;47138;-83
2022/07/06 04:40:58;;;;;;;;;3.75;3.75;;;;;17.80;54.44;102122.66;5075582;27;45369;-83
2022/07/06 04:43:23;;;;;;;;;8.50;6.50;;;;;17.77;54.25;102114.56;5075637;28;45311;-85
2022/07/06 04:45:48;;;;;;;;;4.00;4.00;;;;;17.72;53.99;102094.91;5075253;28;45539;-83
2022/07/06 04:48:13;;;;;;;;;7.00;6.00;;;;;17.92;53.98;102117.66;5075952;27;45708;-86
2022/07/06 04:50:39;;;;;;;;;6.00;5.00;;;;;17.78;54.51;102104.00;5075701;28;45487;-84
2022/07/06 04:53:04;;;;;;;;;5.00;5.00;;;;;17.88;54.69;102118.44;5056908;28;48420;-83
2022/07/06 04:55:29;;;;;;;;;5.00;4.75;;;;;17.91;54.52;102109.63;5075641;28;45418;-85
2022/07/06 04:57:55;;;;;;;;;6.00;5.25;;;;;17.92;54.97;102117.66;5075354;27;45429;-83
2022/07/06 05:00:21;;;;;;;;;5.50;5.00;;;;;18.01;54.82;102123.22;5074943;27;45415;-83
2022/07/06 05:02:46;;;;;;;;;6.25;3.75;;;;;18.01;54.75;102112.56;5075316;28;45339;-83
2022/07/06 05:05:12;;;;;;;;;5.50;5.00;;;;;17.90;54.44;102073.25;5075319;28;45304;-84
2022/07/06 05:07:39;;;;;;;;;4.75;4.75;;;;;18.10;54.18;102113.69;5056768;28;46048;-84
2022/07/06 05:10:06;;;;;;;;;4.00;4.00;;;;;18.11;55.03;102107.50;5075197;28;45409;-85
2022/07/06 05:12:31;;;;;;;;;6.00;6.00;;;;;18.18;54.09;102117.44;5056088;28;45473;-83
2022/07/06 05:14:57;;;;;;;;;5.75;5.75;;;;;18.14;54.25;102107.59;5073305;28;50327;-83
2022/07/06 05:17:22;;;;;;;;;5.00;4.75;;;;;18.04;54.12;102088.72;5056749;28;46718;-84
2022/07/06 05:19:48;;;;;;;;;5.00;4.50;;;;;18.18;54.20;102106.81;5074906;28;45524;-83
2022/07/06 05:22:13;;;;;;;;;5.00;4.75;;;;;18.22;54.19;102113.97;5075280;27;45422;-83
2022/07/06 05:24:39;;;;;;;;;8.75;8.50;;;;;18.27;54.13;102118.59;5075062;28;45567;-86
2022/07/06 05:27:04;;;;;;;;;6.00;5.75;;;;;18.33;54.12;102127.59;5073551;28;47063;-83
2022/07/06 05:29:29;;;;;;;;;11.00;9.50;;;;;18.24;54.22;102102.53;5074910;28;45221;-86
2022/07/06 05:31:55;;;;;;;;;7.00;5.25;;;;;18.40;53.84;102118.88;5074821;28;45507;-83
2022/07/06 05:34:23;;;;;;;;;6.25;6.25;;;;;18.26;54.55;102091.91;5074831;28;46009;-83
2022/07/06 05:36:48;;;;;;;;;7.25;6.75;;;;;18.48;54.37;102120.84;5073126;28;48582;-86
2022/07/06 05:39:18;;;;;;;;;7.75;7.00;;;;;18.56;54.35;102124.59;5073178;28;45457;-83
2022/07/06 05:41:44;;;;;;;;;5.50;4.00;;;;;18.37;54.45;102087.72;5074372;28;45407;-84
2022/07/06 05:44:09;;;;;;;;;5.50;5.50;;;;;18.51;54.30;102106.72;5074665;28;45409;-83
2022/07/06 05:46:35;;;;;;;;;8.00;6.50;;;;;18.40;54.52;102079.84;5074742;28;45586;-84
2022/07/06 05:51:44;;;;;;;;;7.75;7.75;;;;;18.61;54.46;102114.03;5074682;28;45402;-84
2022/07/06 05:54:09;;;;;;;;;7.25;7.25;;;;;18.74;53.59;102139.25;5056260;28;45273;-85
2022/07/06 05:56:34;;;;;;;;;6.50;6.50;;;;;18.70;54.37;102132.94;5073109;28;45906;-85
2022/07/06 05:59:00;;;;;;;;;6.00;6.00;;;;;18.83;54.35;102154.56;5074226;27;45404;-83
2022/07/06 06:01:25;;;;;;;;;6.00;6.00;;;;;18.74;53.59;102128.59;5074397;28;45434;-85
2022/07/06 06:03:51;;;;;;;;;6.25;6.00;;;;;18.86;54.33;102143.94;5056405;28;45491;-84
2022/07/06 06:06:16;;;;;;;;;6.00;6.00;;;;;18.78;53.68;102130.47;5074225;28;45441;-83
2022/07/06 06:08:41;;;;;;;;;5.50;5.50;;;;;18.79;53.81;102130.50;5074215;28;45427;-82
2022/07/06 06:11:07;;;;;;;;;7.00;7.00;;;;;18.93;53.51;102152.13;5074781;27;45499;-85
2022/07/06 06:13:32;;;;;;;;;6.00;6.00;;;;;19.02;53.58;102151.44;5073757;28;45351;-84
2022/07/06 06:15:57;;;;;;;;;9.25;8.75;;;;;18.95;53.79;102139.72;5073754;28;45620;-85
2022/07/06 06:18:23;;;;;;;;;7.50;6.25;;;;;18.89;53.83;102112.06;5074330;28;45586;-85
2022/07/06 06:20:49;;;;;;;;;6.00;6.00;;;;;18.98;53.21;102121.16;5055962;28;45388;-83
2022/07/06 06:23:14;;;;;;;;;4.25;4.25;;;;;19.04;53.68;102123.94;5073952;28;45489;-86
2022/07/06 06:25:39;;;;;;;;;8.00;6.00;;;;;18.98;53.23;102113.16;5073836;28;45480;-83
2022/07/06 06:28:10;;;;;;;;;7.75;7.25;;;;;19.07;53.30;102101.81;5072897;28;45421;-85
2022/07/06 06:30:36;;;;;;;;;9.00;7.75;;;;;19.08;52.81;102103.59;5073815;28;45423;-84
2022/07/06 06:33:16;;;;;;;;;7.25;6.00;;;;;19.41;52.48;102162.06;5073844;28;45409;-88
2022/07/06 06:35:44;;;;;;;;;6.25;6.25;;;;;19.33;53.02;102134.34;5055175;28;47549;-84
2022/07/06 06:38:09;;;;;;;;;7.00;6.00;;;;;19.28;53.01;102125.34;5073890;28;45901;-84
2022/07/06 06:40:35;;;;;;;;;7.50;7.50;;;;;19.40;52.04;102138.91;5074260;28;45224;-84
2022/07/06 06:43:01;;;;;;;;;7.00;7.00;;;;;19.46;51.85;102138.19;5073703;28;45376;-82
2022/07/06 06:45:26;;;;;;;;;6.00;5.75;;;;;19.62;51.64;102156.31;5073352;28;45386;-83
2022/07/06 06:47:52;;;;;;;;;6.50;6.50;;;;;19.39;52.39;102118.47;5074031;28;45364;-82
2022/07/06 06:50:17;;;;;;;;;8.00;8.00;;;;;19.43;51.14;102117.66;5073856;27;45440;-84
2022/07/06 06:52:43;;;;;;;;;7.50;6.75;;;;;19.53;52.02;102135.66;5074214;28;45526;-84
2022/07/06 06:55:09;;;;;;;;;6.25;6.25;;;;;19.54;52.04;102129.44;5073638;28;45403;-83
2022/07/06 06:57:34;;;;;;;;;8.00;7.50;;;;;19.61;51.58;102142.94;5073820;28;45521;-84
2022/07/06 07:00:00;;;;;;;;;7.00;7.00;;;;;19.54;51.51;102125.88;5055355;28;45407;-84
2022/07/06 07:02:25;;;;;;;;;8.00;7.00;;;;;19.68;51.75;102145.75;5073697;28;45346;-82
2022/07/06 07:04:50;;;;;;;;;6.00;5.25;;;;;19.79;50.17;102160.19;5073456;28;45544;-82
2022/07/06 07:07:16;;;;;;;;;7.50;7.25;;;;;19.64;50.55;102127.00;5073969;28;45440;-82
2022/07/06 07:09:41;;;;;;;;;7.25;7.00;;;;;19.75;50.18;102142.34;5073487;28;45328;-83
2022/07/06 07:12:07;;;;;;;;;8.00;6.50;;;;;19.93;50.65;102170.25;5073375;28;45587;-84
2022/07/06 07:14:32;;;;;;;;;6.00;6.00;;;;;19.91;50.08;102164.88;5073230;28;45568;-82
2022/07/06 07:16:58;;;;;;;;;6.50;6.25;;;;;19.93;50.29;102157.78;5073070;28;45379;-83
2022/07/06 07:19:23;;;;;;;;;6.00;5.25;;;;;19.96;50.91;102157.88;5071894;28;45394;-82
2022/07/06 07:21:48;;;;;;;;;5.50;5.50;;;;;20.04;50.54;102158.88;5054903;28;47967;-83
2022/07/06 07:24:13;;;;;;;;;8.00;7.25;;;;;20.06;49.63;102146.47;5073370;28;45316;-84
2022/07/06 07:26:39;;;;;;;;;4.25;4.25;;;;;20.08;49.55;102150.06;5073319;28;45415;-81
2022/07/06 07:29:04;;;;;;;;;6.00;6.00;;;;;20.03;49.19;102140.19;5073287;28;45457;-82
2022/07/06 07:31:29;;;;;;;;;6.00;5.75;;;;;20.21;48.85;102159.19;5072762;28;45272;-82
2022/07/06 07:33:56;;;;;;;;;5.00;4.75;;;;;20.04;48.66;102124.19;5073065;28;45478;-84
2022/07/06 07:36:23;;;;;;;;;6.00;5.75;;;;;20.20;48.30;102140.50;5076728;28;45418;-84
2022/07/06 07:38:49;;;;;;;;;5.75;5.75;;;;;20.13;48.28;102128.78;5076676;27;45463;-82
2022/07/06 07:41:14;;;;;;;;;5.75;5.75;;;;;20.43;48.79;102172.91;5047718;28;45677;-82
2022/07/06 07:43:39;;;;;;;;;6.75;6.75;;;;;20.47;48.01;102177.47;5034642;28;48232;-83
2022/07/06 07:46:05;;;;;;;;;6.75;6.75;;;;;20.36;48.38;102151.44;5036100;28;45452;-83
2022/07/06 07:48:30;;;;;;;;;8.25;8.25;;;;;20.39;48.21;102171.06;5036120;28;45537;-82
2022/07/06 07:50:55;;;;;;;;;6.75;6.75;;;;;20.30;48.47;102137.09;5035930;28;45372;-82
2022/07/06 07:53:21;;;;;;;;;6.00;5.25;;;;;20.43;48.41;102155.13;5035638;28;46444;-83
2022/07/06 07:55:46;;;;;;;;;6.00;6.00;;;;;20.41;48.16;102139.94;5034589;28;45895;-83
2022/07/06 07:58:11;;;;;;;;;7.00;6.75;;;;;20.38;47.32;102135.44;5036044;28;45327;-83
2022/07/06 08:00:37;;;;;;;;;7.00;6.00;;;;;20.27;47.94;102102.34;5035614;28;45362;-81
2022/07/06 08:03:02;;;;;;;;;5.75;4.75;;;;;20.53;49.05;102148.19;5035697;28;45363;-84
2022/07/06 08:05:28;;;;;;;;;5.00;5.00;;;;;20.49;48.98;102125.88;5035943;28;45560;-83
2022/07/06 08:07:53;;;;;;;;;7.50;7.50;;;;;20.61;48.16;102131.41;5035833;28;45293;-82
2022/07/06 08:10:19;;;;;;;;;6.75;6.75;;;;;20.70;48.03;102136.00;5035791;28;45562;-82
2022/07/06 08:12:44;;;;;;;;;6.75;6.75;;;;;20.71;47.87;102126.22;5035657;28;46161;-82
2022/07/06 08:15:10;;;;;;;;;6.25;6.00;;;;;20.72;47.98;102125.31;5035301;28;45541;-82
2022/07/06 08:17:35;;;;;;;;;6.00;5.75;;;;;20.87;47.54;102147.81;5035836;28;45407;-83
2022/07/06 08:20:01;;;;;;;;;6.75;5.75;;;;;20.70;47.07;102111.06;5035730;28;45588;-83
2022/07/06 08:22:27;;;;;;;;;9.00;7.00;;;;;20.96;47.84;102152.41;5035356;28;46191;-82
2022/07/06 08:24:52;;;;;;;;;6.00;6.00;;;;;20.93;47.82;102139.00;5035228;28;45610;-82
2022/07/06 08:27:17;;;;;;;;;6.25;5.75;;;;;20.93;48.31;102130.97;5035609;28;45395;-82
2022/07/06 08:29:43;;;;;;;;;7.75;7.75;;;;;21.00;47.37;102135.53;5035414;28;45681;-82
2022/07/06 08:32:09;;;;;;;;;6.25;5.50;;;;;21.07;47.40;102145.44;5034610;28;46737;-82
2022/07/06 08:34:34;;;;;;;;;7.00;6.50;;;;;20.99;47.01;102131.09;5033964;28;45796;-82
2022/07/06 08:37:00;;;;;;;;;7.00;7.00;;;;;20.78;46.87;102098.69;5035533;28;45370;-82
2022/07/06 08:39:25;;;;;;;;;6.00;5.75;;;;;21.11;46.73;102149.94;5035471;28;45408;-82
2022/07/06 08:41:51;;;;;;;;;7.00;6.50;;;;;21.21;46.66;102158.09;5059681;28;45392;-82
2022/07/06 08:44:17;;;;;;;;;6.25;6.00;;;;;21.16;46.45;102150.00;5075344;28;45510;-81
2022/07/06 08:46:44;;;;;;;;;6.75;5.25;;;;;21.12;47.02;102137.47;5056573;28;45444;-83
2022/07/06 08:49:13;;;;;;;;;5.00;5.00;;;;;21.27;46.21;102150.16;5075380;28;45277;-81
2022/07/06 08:51:40;;;;;;;;;6.00;5.00;;;;;21.25;46.65;102130.53;5075343;28;46468;-82
2022/07/06 08:54:07;;;;;;;;;3.75;3.75;;;;;21.37;46.51;102152.09;5075284;28;45425;-81
2022/07/06 08:56:32;;;;;;;;;4.50;4.50;;;;;21.34;46.59;102136.03;5075406;28;45335;-81
2022/07/06 08:58:59;;;;;;;;;7.25;4.75;;;;;21.26;45.84;102111.81;5075782;28;45724;-82
2022/07/06 09:01:25;;;;;;;;;5.75;5.75;;;;;21.54;45.45;102155.00;5075015;28;46508;-82
2022/07/06 09:03:50;;;;;;;;;5.00;5.00;;;;;21.50;45.56;102131.75;5074620;27;45528;-82
2022/07/06 09:06:27;;;;;;;;;4.50;4.50;;;;;21.46;45.09;102114.75;5073865;28;45343;-84
2022/07/06 09:08:56;;;;;;;;;5.00;5.00;;;;;21.58;45.27;102136.31;5074942;28;45558;-82
2022/07/06 09:11:23;;;;;;;;;4.50;4.50;;;;;21.58;45.46;102125.63;5075025;28;46148;-82
2022/07/06 09:13:51;;;;;;;;;6.00;6.00;;;;;21.46;44.88;102093.38;5056940;28;45547;-82
2022/07/06 09:16:17;;;;;;;;;5.00;4.00;;;;;21.79;45.32;102142.78;5073893;28;45494;-82
2022/07/06 09:18:46;;;;;;;;;7.75;6.00;;;;;21.84;44.90;102149.09;5074820;28;45308;-84
2022/07/06 09:21:21;;;;;;;;;3.00;3.00;;;;;21.78;44.69;102131.19;5075095;27;45864;-83
2022/07/06 09:23:47;;;;;;;;;5.25;4.50;;;;;21.76;44.50;102111.53;5074943;28;45292;-83
2022/07/06 09:26:12;;;;;;;;;4.75;3.50;;;;;21.72;44.07;102111.47;5056457;28;45404;-81
2022/07/06 09:28:44;;;;;;;;;3.25;3.00;;;;;22.00;44.20;102143.00;5073673;28;45553;-82
2022/07/06 09:31:10;;;;;;;;;4.00;4.00;;;;;21.88;44.17;102105.41;5074950;28;47490;-83
2022/07/06 09:33:36;;;;;;;;;4.25;4.25;;;;;22.07;43.88;102122.56;5074612;28;45412;-82
2022/07/06 09:36:03;;;;;;;;;5.75;5.50;;;;;22.14;43.87;102111.03;5074966;28;45336;-82
2022/07/06 09:38:28;;;;;;;;;4.25;4.00;;;;;22.26;44.13;102115.59;5074891;28;45495;-84
2022/07/06 09:40:54;;;;;;;;;3.00;2.75;;;;;22.32;43.08;102107.63;5074324;28;45610;-81
2022/07/06 09:43:22;;;;;;;;;3.00;2.00;;;;;22.18;43.15;102070.00;5055921;28;45903;-84
2022/07/06 09:45:55;;;;;;;;;4.00;4.00;;;;;22.32;43.18;102091.56;5074653;28;45348;-82
2022/07/06 09:48:23;;;;;;;;;4.00;4.00;;;;;22.43;42.48;102116.63;5072970;28;45454;-82
2022/07/06 09:50:50;;;;;;;;;5.00;3.75;;;;;22.43;41.84;102131.81;5074585;28;45505;-83
2022/07/06 09:53:16;;;;;;;;;4.25;4.25;;;;;22.22;42.66;102095.06;5074531;28;45672;-83
2022/07/06 09:55:49;;;;;;;;;3.50;3.50;;;;;22.45;42.24;102130.94;5074799;28;45441;-82
2022/07/06 09:58:15;;;;;;;;;3.00;3.00;;;;;22.35;42.32;102119.25;5073765;28;45400;-82
2022/07/06 10:00:42;;;;;;;;;4.25;4.25;;;;;22.44;42.61;102123.78;5074158;28;46489;-83
2022/07/06 10:03:08;;;;;;;;;4.00;3.75;;;;;22.59;41.64;102131.94;5074361;28;46105;-85
2022/07/06 10:05:37;;;;;;;;;6.00;4.00;;;;;22.65;41.92;102139.13;5074516;28;45278;-82
2022/07/06 10:08:05;;;;;;;;;3.00;2.00;;;;;22.65;41.89;102129.28;5074337;28;45565;-84
2022/07/06 10:10:32;;;;;;;;;1.00;1.00;;;;;22.75;41.19;102137.41;5074231;28;46550;-83
2022/07/06 10:12:59;;;;;;;;;6.00;6.00;;;;;22.79;40.59;102133.84;5074263;28;45951;-82
2022/07/06 10:15:26;;;;;;;;;3.00;3.00;;;;;22.87;40.83;102140.16;5056084;28;45380;-84
2022/07/06 10:17:52;;;;;;;;;5.00;4.00;;;;;22.87;40.66;102135.69;5055609;28;45541;-85
2022/07/06 10:20:19;;;;;;;;;2.25;2.25;;;;;22.94;40.88;102125.03;5074056;28;46462;-83
2022/07/06 10:22:47;;;;;;;;;4.00;3.00;;;;;22.90;40.63;102113.38;5055789;28;45288;-83
2022/07/06 10:25:15;;;;;;;;;3.00;3.00;;;;;22.87;40.89;102099.97;5073883;28;45402;-83
2022/07/06 10:27:42;;;;;;;;;4.00;4.00;;;;;22.94;40.73;102093.75;5055965;28;45583;-82
2022/07/06 10:30:08;;;;;;;;;3.00;3.00;;;;;23.05;40.70;102105.44;5073921;28;46632;-84
2022/07/06 10:32:35;;;;;;;;;3.25;3.25;;;;;23.17;40.54;102110.88;5073495;28;45787;-82
2022/07/06 10:35:00;;;;;;;;;4.00;3.75;;;;;23.18;40.46;102084.94;5055809;28;45408;-83
2022/07/06 10:37:27;;;;;;;;;3.50;3.00;;;;;23.38;40.70;102095.72;5055685;28;45636;-83
2022/07/06 10:42:49;;;;;;;;;3.75;3.00;;;;;23.74;39.90;102121.81;5073520;28;45319;-82
2022/07/06 10:45:20;;;;;;;;;3.50;3.00;;;;;23.86;40.00;102121.84;5073848;28;45443;-83
2022/07/06 10:47:45;;;;;;;;;3.00;3.00;;;;;23.90;38.85;102102.16;5073664;27;45700;-85
2022/07/06 10:50:12;;;;;;;;;3.25;3.25;;;;;24.05;39.80;102100.38;5073535;28;46439;-85
2022/07/06 10:52:58;;;;;;;;;3.00;3.00;;;;;24.11;39.28;102095.91;5055415;28;45739;-83
2022/07/06 10:55:29;;;;;;;;;2.25;2.25;;;;;24.24;39.00;102117.41;5055418;28;45327;-82
2022/07/06 10:57:55;;;;;;;;;3.50;3.50;;;;;24.13;38.79;102114.69;5055355;28;45541;-82
2022/07/06 11:00:20;;;;;;;;;4.75;4.00;;;;;23.98;39.23;102094.09;5071913;28;46982;-84
2022/07/06 11:02:46;;;;;;;;;3.50;3.25;;;;;23.94;39.08;102092.31;5073071;28;45246;-82
2022/07/06 11:05:31;;;;;;;;;4.00;3.00;;;;;24.05;39.35;102105.75;5073709;28;45422;-82
2022/07/06 11:08:01;;;;;;;;;4.25;4.25;;;;;24.36;39.02;102101.31;5073344;28;45320;-84
2022/07/06 11:10:26;;;;;;;;;3.00;3.00;;;;;24.52;38.86;102091.41;5076778;28;45627;-82
2022/07/06 11:13:00;;;;;;;;;4.00;4.00;;;;;24.75;38.78;102108.41;5076875;28;45469;-82
2022/07/06 11:15:47;;;;;;;;;3.25;3.25;;;;;24.90;38.57;102104.78;5058840;28;45612;-82
2022/07/06 11:18:13;;;;;;;;;4.50;4.00;;;;;24.80;38.04;102094.97;5076384;28;45424;-82
2022/07/06 11:20:39;;;;;;;;;5.00;5.00;;;;;24.78;38.03;102088.66;5077002;27;45794;-83
2022/07/06 11:23:04;;;;;;;;;6.50;5.00;;;;;24.69;38.44;102065.41;5076762;27;45778;-83
2022/07/06 11:25:30;;;;;;;;;6.00;5.00;;;;;24.67;38.16;102060.03;5076824;28;45389;-84